Time,TemperatureF,DewpointF,PressureIn,WindDirection,WindDirectionDegrees,WindSpeedMPH,WindSpeedGustMPH,Humidity,HourlyPrecipIn,Conditions,Clouds,dailyrainin,SoftwareType,DateUTC
2013-04-28 00:01:00,42.9,42.1,30.32,ESE,105,2.0,3.0,97,0.00,,CLR,0.00,VWS V14.00,2013-04-28 04:01:00,
2013-04-28 00:06:00,42.7,41.9,30.32,ESE,113,1.0,3.0,97,0.00,,CLR,0.00,VWS V14.00,2013-04-28 04:06:00,
2013-04-28 00:11:00,42.5,41.7,30.32,SE,141,0.0,0.0,97,0.00,,CLR,0.00,VWS V14.00,2013-04-28 04:11:00,
2013-04-28 00:16:00,42.4,41.6,30.32,SE,141,0.0,0.0,97,0.00,,CLR,0.00,VWS V14.00,2013-04-28 04:16:00,
2013-04-28 00:21:00,42.4,41.6,30.32,SE,141,0.0,1.0,97,0.00,,CLR,0.00,VWS V14.00,2013-04-28 04:21:00,
2013-04-28 00:26:00,42.5,41.7,30.32,SE,139,0.0,2.0,97,0.00,,CLR,0.00,VWS V14.00,2013-04-28 04:26:00,
2013-04-28 00:31:00,42.6,42.1,30.32,East,80,0.0,1.0,98,0.00,,CLR,0.00,VWS V14.00,2013-04-28 04:31:00,
2013-04-28 00:36:00,42.7,42.2,30.32,East,80,0.0,0.0,98,0.00,,CLR,0.00,VWS V14.00,2013-04-28 04:36:00,
2013-04-28 00:41:00,42.7,42.2,30.32,East,80,0.0,0.0,98,0.00,,CLR,0.00,VWS V14.00,2013-04-28 04:41:00,
2013-04-28 00:46:00,42.6,42.1,30.32,East,96,1.0,1.0,98,0.00,,CLR,0.00,VWS V14.00,2013-04-28 04:46:00,
2013-04-28 00:51:00,42.5,42.0,30.32,ENE,71,1.0,3.0,98,0.00,,CLR,0.00,VWS V14.00,2013-04-28 04:51:00,
2013-04-28 00:56:00,42.4,41.9,30.32,NE,52,0.0,3.0,98,0.00,,CLR,0.00,VWS V14.00,2013-04-28 04:56:00,
2013-04-28 01:01:00,42.3,41.8,30.32,ESE,105,2.0,4.0,98,0.00,,CLR,0.00,VWS V14.00,2013-04-28 05:01:00,
2013-04-28 01:06:00,42.2,41.7,30.31,ENE,75,0.0,3.0,98,0.00,,,0.00,VWS V14.00,2013-04-28 05:06:00,
2013-04-28 01:11:00,42.3,41.8,30.31,ENE,78,1.0,2.0,98,0.00,,,0.00,VWS V14.00,2013-04-28 05:11:00,
2013-04-28 01:16:00,42.3,41.8,30.31,East,88,2.0,2.0,98,0.00,,,0.00,VWS V14.00,2013-04-28 05:16:00,
2013-04-28 01:21:00,42.2,41.7,30.31,ESE,122,0.0,0.0,98,0.00,,,0.00,VWS V14.00,2013-04-28 05:21:00,
2013-04-28 01:26:00,42.0,41.5,30.31,East,99,0.0,0.0,98,0.00,,,0.00,VWS V14.00,2013-04-28 05:26:00,
2013-04-28 01:31:00,42.0,41.5,30.31,NNE,17,0.0,0.0,98,0.00,,,0.00,VWS V14.00,2013-04-28 05:31:00,
2013-04-28 01:36:00,41.9,41.4,30.31,NNE,17,0.0,0.0,98,0.00,,,0.00,VWS V14.00,2013-04-28 05:36:00,
2013-04-28 01:41:00,41.8,41.3,30.31,NNE,17,0.0,0.0,98,0.00,,,0.00,VWS V14.00,2013-04-28 05:41:00,
2013-04-28 01:46:00,41.7,41.2,30.30,NE,34,0.0,0.0,98,0.00,,,0.00,VWS V14.00,2013-04-28 05:46:00,
2013-04-28 01:51:00,41.6,41.1,30.31,East,88,0.0,0.0,98,0.00,,,0.00,VWS V14.00,2013-04-28 05:51:00,
2013-04-28 01:56:00,41.6,41.1,30.30,East,89,0.0,0.0,98,0.00,,,0.00,VWS V14.00,2013-04-28 05:56:00,
2013-04-28 02:01:00,41.7,41.2,30.30,East,87,0.0,0.0,98,0.00,,,0.00,VWS V14.00,2013-04-28 06:01:00,
2013-04-28 02:06:00,41.7,41.2,30.30,NNE,22,0.0,1.0,98,0.00,,,0.00,VWS V14.00,2013-04-28 06:06:00,
2013-04-28 02:11:00,41.7,41.2,30.29,NNE,21,0.0,1.0,98,0.00,,,0.00,VWS V14.00,2013-04-28 06:11:00,
2013-04-28 02:16:00,41.6,41.1,30.29,NNE,22,0.0,0.0,98,0.00,,,0.00,VWS V14.00,2013-04-28 06:16:00,
2013-04-28 02:21:00,41.4,40.9,30.29,NNE,16,0.0,1.0,98,0.00,,,0.00,VWS V14.00,2013-04-28 06:21:00,
2013-04-28 02:26:00,41.3,40.8,30.29,NW,315,0.0,1.0,98,0.00,,,0.00,VWS V14.00,2013-04-28 06:26:00,
2013-04-28 02:30:00,41.2,40.7,30.29,NNE,12,0.0,1.0,98,0.00,,,0.00,VWS V14.00,2013-04-28 06:30:00,
2013-04-28 02:35:00,41.0,40.5,30.29,NNE,14,0.0,0.0,98,0.00,,,0.00,VWS V14.00,2013-04-28 06:35:00,
2013-04-28 02:40:00,40.9,40.4,30.29,NNE,14,0.0,0.0,98,0.00,,,0.00,VWS V14.00,2013-04-28 06:40:00,
2013-04-28 02:45:00,40.8,40.3,30.29,NNE,14,0.0,0.0,98,0.00,,,0.00,VWS V14.00,2013-04-28 06:45:00,
2013-04-28 02:50:00,40.8,40.3,30.29,NE,44,0.0,1.0,98,0.00,,,0.00,VWS V14.00,2013-04-28 06:50:00,
2013-04-28 02:55:00,40.7,40.2,30.29,NE,44,0.0,1.0,98,0.00,,,0.00,VWS V14.00,2013-04-28 06:55:00,
2013-04-28 03:00:00,40.6,40.1,30.29,NE,44,0.0,0.0,98,0.00,,,0.00,VWS V14.00,2013-04-28 07:00:00,
2013-04-28 03:05:00,40.5,40.0,30.29,NE,49,0.0,0.0,98,0.00,,,0.00,VWS V14.00,2013-04-28 07:05:00,
2013-04-28 03:10:00,40.4,39.9,30.29,NE,49,0.0,0.0,98,0.00,,,0.00,VWS V14.00,2013-04-28 07:10:00,
2013-04-28 03:15:00,40.4,39.9,30.29,NE,54,0.0,0.0,98,0.00,,,0.00,VWS V14.00,2013-04-28 07:15:00,
2013-04-28 03:20:00,40.3,39.8,30.29,NE,54,0.0,1.0,98,0.00,,,0.00,VWS V14.00,2013-04-28 07:20:00,
2013-04-28 03:25:00,40.2,39.7,30.28,NE,54,0.0,1.0,98,0.00,,,0.00,VWS V14.00,2013-04-28 07:25:00,
2013-04-28 03:30:00,40.1,39.6,30.28,NE,54,0.0,0.0,98,0.00,,,0.00,VWS V14.00,2013-04-28 07:30:00,
2013-04-28 03:35:00,39.9,39.4,30.29,NE,54,0.0,0.0,98,0.00,,,0.00,VWS V14.00,2013-04-28 07:35:00,
2013-04-28 03:40:00,39.8,39.3,30.28,NNW,331,0.0,0.0,98,0.00,,,0.00,VWS V14.00,2013-04-28 07:40:00,
2013-04-28 03:45:00,39.5,39.0,30.28,NNE,17,0.0,0.0,98,0.00,,,0.00,VWS V14.00,2013-04-28 07:45:00,
2013-04-28 03:50:00,39.4,38.9,30.28,NE,38,0.0,0.0,98,0.00,,,0.00,VWS V14.00,2013-04-28 07:50:00,
2013-04-28 03:55:00,39.3,38.8,30.28,ENE,74,0.0,0.0,98,0.00,,,0.00,VWS V14.00,2013-04-28 07:55:00,
2013-04-28 04:00:00,39.1,38.6,30.28,ENE,74,0.0,0.0,98,0.00,,,0.00,VWS V14.00,2013-04-28 08:00:00,
2013-04-28 04:05:00,39.1,38.6,30.28,ENE,74,0.0,0.0,98,0.00,,,0.00,VWS V14.00,2013-04-28 08:05:00,
2013-04-28 04:10:00,39.0,38.5,30.28,North,11,0.0,0.0,98,0.00,,,0.00,VWS V14.00,2013-04-28 08:10:00,
2013-04-28 04:15:00,39.1,38.6,30.28,North,11,0.0,0.0,98,0.00,,,0.00,VWS V14.00,2013-04-28 08:15:00,
2013-04-28 04:20:00,39.1,38.6,30.28,North,11,0.0,0.0,98,0.00,,,0.00,VWS V14.00,2013-04-28 08:20:00,
2013-04-28 04:25:00,39.2,38.7,30.28,North,11,0.0,0.0,98,0.00,,,0.00,VWS V14.00,2013-04-28 08:25:00,
2013-04-28 04:30:00,39.5,39.0,30.28,NNE,16,0.0,0.0,98,0.00,,,0.00,VWS V14.00,2013-04-28 08:30:00,
2013-04-28 04:35:00,39.6,39.3,30.28,NNE,16,0.0,0.0,99,0.00,,,0.00,VWS V14.00,2013-04-28 08:35:00,
2013-04-28 04:40:00,39.6,39.3,30.28,NNE,16,0.0,0.0,99,0.00,,,0.00,VWS V14.00,2013-04-28 08:40:00,
2013-04-28 04:45:00,39.8,39.5,30.28,NNE,15,0.0,0.0,99,0.00,,,0.00,VWS V14.00,2013-04-28 08:45:00,
2013-04-28 04:50:00,39.9,39.6,30.28,NNE,16,0.0,0.0,99,0.00,,,0.00,VWS V14.00,2013-04-28 08:50:00,
2013-04-28 04:55:00,40.0,39.7,30.28,NNW,338,0.0,0.0,99,0.00,,,0.00,VWS V14.00,2013-04-28 08:55:00,
2013-04-28 05:00:00,39.8,39.5,30.28,NNW,341,0.0,0.0,99,0.00,,,0.00,VWS V14.00,2013-04-28 09:00:00,
2013-04-28 05:05:00,39.5,39.0,30.28,NNW,341,0.0,0.0,98,0.00,,,0.00,VWS V14.00,2013-04-28 09:05:00,
2013-04-28 05:10:00,39.3,38.8,30.28,NNW,340,0.0,0.0,98,0.00,,,0.00,VWS V14.00,2013-04-28 09:10:00,
2013-04-28 05:15:00,39.2,38.7,30.28,NNW,341,0.0,0.0,98,0.00,,,0.00,VWS V14.00,2013-04-28 09:15:00,
2013-04-28 05:20:00,39.0,38.5,30.28,NNW,346,0.0,0.0,98,0.00,,,0.00,VWS V14.00,2013-04-28 09:20:00,
2013-04-28 05:25:00,38.8,38.3,30.28,NNW,346,0.0,0.0,98,0.00,,,0.00,VWS V14.00,2013-04-28 09:25:00,
2013-04-28 05:30:00,38.7,38.2,30.28,NNW,346,0.0,0.0,98,0.00,,,0.00,VWS V14.00,2013-04-28 09:30:00,
2013-04-28 05:35:00,38.5,38.0,30.28,NNW,346,0.0,0.0,98,0.00,,,0.00,VWS V14.00,2013-04-28 09:35:00,
2013-04-28 05:40:00,38.3,37.8,30.28,NNW,346,0.0,0.0,98,0.00,,,0.00,VWS V14.00,2013-04-28 09:40:00,
2013-04-28 05:45:00,38.1,37.6,30.28,NNW,346,0.0,0.0,98,0.00,,,0.00,VWS V14.00,2013-04-28 09:45:00,
2013-04-28 05:50:00,37.8,37.3,30.28,NNW,346,0.0,0.0,98,0.00,,,0.00,VWS V14.00,2013-04-28 09:50:00,
2013-04-28 05:55:00,37.6,37.1,30.28,NNW,346,0.0,0.0,98,0.00,,,0.00,VWS V14.00,2013-04-28 09:55:00,
2013-04-28 06:00:00,37.4,36.9,30.28,NNW,346,0.0,0.0,98,0.00,,,0.00,VWS V14.00,2013-04-28 10:00:00,
2013-04-28 06:05:00,37.3,36.8,30.28,NNW,346,0.0,0.0,98,0.00,,,0.00,VWS V14.00,2013-04-28 10:05:00,
2013-04-28 06:10:00,37.1,36.6,30.28,NNW,346,0.0,0.0,98,0.00,,,0.00,VWS V14.00,2013-04-28 10:10:00,
2013-04-28 06:15:00,37.1,36.6,30.28,NNW,346,0.0,0.0,98,0.00,,,0.00,VWS V14.00,2013-04-28 10:15:00,
2013-04-28 06:20:00,37.2,37.0,30.28,NNW,346,0.0,0.0,99,0.00,,,0.00,VWS V14.00,2013-04-28 10:20:00,
2013-04-28 06:25:00,37.3,37.0,30.29,NNW,346,0.0,0.0,99,0.00,,,0.00,VWS V14.00,2013-04-28 10:25:00,
2013-04-28 06:30:00,37.5,37.2,30.29,NNW,346,0.0,0.0,99,0.00,,,0.00,VWS V14.00,2013-04-28 10:30:00,
2013-04-28 06:35:00,37.7,37.5,30.29,NNW,346,0.0,0.0,99,0.00,,,0.00,VWS V14.00,2013-04-28 10:35:00,
2013-04-28 06:40:00,38.1,37.8,30.29,NNW,346,0.0,0.0,99,0.01,,,0.01,VWS V14.00,2013-04-28 10:40:00,
2013-04-28 06:45:00,38.7,38.4,30.29,NNW,346,0.0,0.0,99,0.01,,,0.01,VWS V14.00,2013-04-28 10:45:00,
2013-04-28 06:50:00,38.9,38.6,30.30,NNW,346,0.0,0.0,99,0.01,,,0.01,VWS V14.00,2013-04-28 10:50:00,
2013-04-28 06:55:00,39.1,38.8,30.30,ESE,114,0.0,0.0,99,0.01,,,0.01,VWS V14.00,2013-04-28 10:55:00,
2013-04-28 07:00:00,39.5,39.2,30.30,ESE,111,0.0,0.0,99,0.01,,,0.01,VWS V14.00,2013-04-28 11:00:00,
2013-04-28 07:05:00,39.7,39.4,30.30,East,80,0.0,0.0,99,0.01,,SCT080,0.01,VWS V14.00,2013-04-28 11:05:00,
2013-04-28 07:10:00,40.0,39.7,30.30,NNE,24,0.0,1.0,99,0.01,,SCT080,0.01,VWS V14.00,2013-04-28 11:10:00,
2013-04-28 07:15:00,40.3,40.0,30.30,NNE,29,0.0,0.0,99,0.01,,SCT080,0.01,VWS V14.00,2013-04-28 11:15:00,
2013-04-28 07:20:00,40.7,40.4,30.31,ENE,61,1.0,1.0,99,0.01,,SCT080,0.01,VWS V14.00,2013-04-28 11:20:00,
2013-04-28 07:25:00,40.8,40.5,30.31,ENE,61,0.0,1.0,99,0.01,,SCT080,0.01,VWS V14.00,2013-04-28 11:25:00,
2013-04-28 07:30:00,41.1,40.8,30.31,ENE,59,0.0,0.0,99,0.01,,SCT080,0.01,VWS V14.00,2013-04-28 11:30:00,
2013-04-28 07:35:00,41.3,41.0,30.31,ENE,66,0.0,1.0,99,0.01,,SCT080,0.01,VWS V14.00,2013-04-28 11:35:00,
2013-04-28 07:40:00,41.5,41.2,30.31,ENE,65,0.0,0.0,99,0.00,,SCT080,0.01,VWS V14.00,2013-04-28 11:40:00,
2013-04-28 07:45:00,41.8,41.5,30.31,East,80,0.0,0.0,99,0.00,,SCT080,0.01,VWS V14.00,2013-04-28 11:45:00,
2013-04-28 07:50:00,42.2,41.9,30.31,East,89,1.0,1.0,99,0.00,,SCT080,0.01,VWS V14.00,2013-04-28 11:50:00,
2013-04-28 07:55:00,42.9,42.6,30.31,East,98,0.0,0.0,99,0.00,,SCT080,0.01,VWS V14.00,2013-04-28 11:55:00,
2013-04-28 08:00:00,44.0,43.7,30.31,East,97,0.0,0.0,99,0.00,,SCT080,0.01,VWS V14.00,2013-04-28 12:00:00,
2013-04-28 08:05:00,44.6,44.3,30.32,ENE,76,0.0,0.0,99,0.00,,SCT080,0.01,VWS V14.00,2013-04-28 12:05:00,
2013-04-28 08:10:00,45.5,45.2,30.31,ENE,77,0.0,1.0,99,0.00,,SCT080,0.01,VWS V14.00,2013-04-28 12:10:00,
2013-04-28 08:15:00,46.0,45.7,30.31,NE,52,1.0,1.0,99,0.00,,SCT080,0.01,VWS V14.00,2013-04-28 12:15:00,
2013-04-28 08:20:00,46.8,46.5,30.31,ENE,57,0.0,2.0,99,0.00,,SCT080,0.01,VWS V14.00,2013-04-28 12:20:00,
2013-04-28 08:25:00,46.8,46.5,30.31,ENE,62,0.0,1.0,99,0.00,,SCT080,0.01,VWS V14.00,2013-04-28 12:25:00,
2013-04-28 08:30:00,47.2,46.9,30.31,NE,56,0.0,0.0,99,0.00,,SCT080,0.01,VWS V14.00,2013-04-28 12:30:00,
2013-04-28 08:35:00,48.1,47.8,30.31,ENE,73,0.0,1.0,99,0.00,,SCT080,0.01,VWS V14.00,2013-04-28 12:35:00,
2013-04-28 08:40:00,48.6,48.3,30.32,ENE,78,1.0,1.0,99,0.00,,SCT080,0.01,VWS V14.00,2013-04-28 12:40:00,
2013-04-28 08:45:00,49.0,48.7,30.32,ESE,103,0.0,1.0,99,0.00,,SCT080,0.01,VWS V14.00,2013-04-28 12:45:00,
2013-04-28 08:50:00,48.9,48.4,30.31,East,80,1.0,2.0,98,0.00,,SCT080,0.01,VWS V14.00,2013-04-28 12:50:00,
2013-04-28 08:55:00,49.7,48.9,30.31,SSE,148,0.0,2.0,97,0.00,,SCT080,0.01,VWS V14.00,2013-04-28 12:55:00,
2013-04-28 09:00:00,50.1,48.7,30.32,ENE,68,1.0,2.0,95,0.00,,SCT080,0.01,VWS V14.00,2013-04-28 13:00:00,
2013-04-28 09:05:00,51.0,48.5,30.32,SE,132,2.0,2.0,91,0.00,,SCT080,0.01,VWS V14.00,2013-04-28 13:05:00,
2013-04-28 09:10:00,51.6,47.9,30.32,ESE,110,2.0,2.0,87,0.00,,SCT080,0.01,VWS V14.00,2013-04-28 13:10:00,
2013-04-28 09:15:00,51.4,47.4,30.32,ESE,109,2.0,5.0,86,0.00,,SCT080,0.01,VWS V14.00,2013-04-28 13:15:00,
2013-04-28 09:20:00,51.1,47.1,30.32,ENE,62,2.0,4.0,86,0.00,,SCT080,0.01,VWS V14.00,2013-04-28 13:20:00,
2013-04-28 09:25:00,51.1,47.7,30.32,SE,146,0.0,2.0,88,0.00,,SCT080,0.01,VWS V14.00,2013-04-28 13:25:00,
2013-04-28 09:30:00,51.8,48.1,30.32,SSE,148,0.0,2.0,87,0.00,,SCT080,0.01,VWS V14.00,2013-04-28 13:30:00,
2013-04-28 09:34:00,53.1,48.7,30.32,ESE,118,0.0,3.0,85,0.00,,SCT080,0.01,VWS V14.00,2013-04-28 13:34:00,
2013-04-28 09:39:00,53.6,47.6,30.32,SE,140,1.0,4.0,80,0.00,,SCT080,0.01,VWS V14.00,2013-04-28 13:39:00,
2013-04-28 09:44:00,53.7,47.7,30.32,SE,130,0.0,3.0,80,0.00,,SCT080,0.01,VWS V14.00,2013-04-28 13:44:00,
2013-04-28 09:49:00,54.5,48.1,30.32,East,92,1.0,3.0,79,0.00,,SCT080,0.01,VWS V14.00,2013-04-28 13:49:00,
2013-04-28 09:54:00,54.8,48.8,30.32,SSE,157,1.0,4.0,80,0.00,,SCT080,0.01,VWS V14.00,2013-04-28 13:54:00,
2013-04-28 09:59:00,54.1,47.7,30.32,SSE,157,4.0,5.0,79,0.00,,SCT080,0.01,VWS V14.00,2013-04-28 13:59:00,
2013-04-28 10:04:00,54.1,47.7,30.32,East,98,4.0,9.0,79,0.00,,SCT080,0.01,VWS V14.00,2013-04-28 14:04:00,
2013-04-28 10:09:00,53.5,47.5,30.32,East,92,2.0,7.0,80,0.00,,SCT080,0.01,VWS V14.00,2013-04-28 14:09:00,
2013-04-28 10:14:00,53.3,47.3,30.32,NE,50,2.0,2.0,80,0.00,,SCT080,0.01,VWS V14.00,2013-04-28 14:14:00,
2013-04-28 10:19:00,52.9,47.6,30.32,East,90,2.0,5.0,82,0.00,,SCT080,0.01,VWS V14.00,2013-04-28 14:19:00,
2013-04-28 10:24:00,53.7,48.0,30.32,SE,142,1.0,6.0,81,0.00,,SCT080,0.01,VWS V14.00,2013-04-28 14:24:00,
2013-04-28 10:29:00,54.1,47.1,30.32,East,98,4.0,10.0,77,0.00,,SCT080,0.01,VWS V14.00,2013-04-28 14:29:00,
2013-04-28 10:34:00,53.2,46.9,30.32,East,80,5.0,7.0,79,0.00,,SCT080,0.01,VWS V14.00,2013-04-28 14:34:00,
2013-04-28 10:39:00,52.8,47.1,30.32,ESE,108,1.0,7.0,81,0.00,,SCT080,0.01,VWS V14.00,2013-04-28 14:39:00,
2013-04-28 10:44:00,53.1,47.8,30.32,SSE,148,3.0,3.0,82,0.00,,SCT080,0.01,VWS V14.00,2013-04-28 14:44:00,
2013-04-28 10:49:00,54.0,46.6,30.32,ESE,123,2.0,10.0,76,0.00,,SCT080,0.01,VWS V14.00,2013-04-28 14:49:00,
2013-04-28 10:54:00,55.1,47.7,30.32,SE,137,5.0,5.0,76,0.00,,SCT080,0.01,VWS V14.00,2013-04-28 14:54:00,
2013-04-28 10:59:00,55.9,48.1,30.32,ESE,117,4.0,4.0,75,0.00,,SCT080,0.01,VWS V14.00,2013-04-28 14:59:00,
2013-04-28 11:04:00,55.6,47.8,30.32,ESE,102,4.0,4.0,75,0.00,,CLR,0.01,VWS V14.00,2013-04-28 15:04:00,
2013-04-28 11:09:00,55.3,47.2,30.31,SE,130,1.0,4.0,74,0.00,,CLR,0.01,VWS V14.00,2013-04-28 15:09:00,
2013-04-28 11:14:00,55.2,47.1,30.31,ESE,112,2.0,6.0,74,0.00,,CLR,0.01,VWS V14.00,2013-04-28 15:14:00,
2013-04-28 11:19:00,56.1,47.6,30.31,SSE,157,3.0,4.0,73,0.00,,CLR,0.01,VWS V14.00,2013-04-28 15:19:00,
2013-04-28 11:24:00,56.8,47.5,30.31,East,90,2.0,4.0,71,0.00,,CLR,0.01,VWS V14.00,2013-04-28 15:24:00,
2013-04-28 11:29:00,57.1,47.4,30.31,SE,142,4.0,4.0,70,0.00,,CLR,0.01,VWS V14.00,2013-04-28 15:29:00,
2013-04-28 11:34:00,57.3,46.5,30.31,SE,128,3.0,4.0,67,0.00,,CLR,0.01,VWS V14.00,2013-04-28 15:34:00,
2013-04-28 11:39:00,58.0,47.5,30.31,ENE,62,5.0,9.0,68,0.00,,CLR,0.01,VWS V14.00,2013-04-28 15:39:00,
2013-04-28 11:44:00,58.2,47.3,30.31,SE,133,1.0,2.0,67,0.00,,CLR,0.01,VWS V14.00,2013-04-28 15:44:00,
2013-04-28 11:49:00,58.3,45.8,30.31,ENE,74,7.0,7.0,63,0.00,,CLR,0.01,VWS V14.00,2013-04-28 15:49:00,
2013-04-28 11:54:00,57.9,45.4,30.31,SE,146,2.0,4.0,63,0.00,,CLR,0.01,VWS V14.00,2013-04-28 15:54:00,
2013-04-28 11:59:00,58.6,45.6,30.31,SE,134,2.0,5.0,62,0.00,,CLR,0.01,VWS V14.00,2013-04-28 15:59:00,
2013-04-28 12:04:00,59.6,45.3,30.31,ESE,123,4.0,4.0,59,0.00,,CLR,0.01,VWS V14.00,2013-04-28 16:04:00,
2013-04-28 12:09:00,60.1,46.2,30.31,ENE,64,1.0,2.0,60,0.00,,CLR,0.01,VWS V14.00,2013-04-28 16:09:00,
2013-04-28 12:14:00,60.4,46.0,30.31,ESE,103,5.0,5.0,59,0.00,,CLR,0.01,VWS V14.00,2013-04-28 16:14:00,
2013-04-28 12:19:00,59.3,46.7,30.31,NE,36,3.0,5.0,63,0.00,,CLR,0.01,VWS V14.00,2013-04-28 16:19:00,
2013-04-28 12:24:00,58.9,47.2,30.30,SSE,152,2.0,5.0,65,0.00,,CLR,0.01,VWS V14.00,2013-04-28 16:24:00,
2013-04-28 12:29:00,58.9,46.8,30.30,ENE,66,4.0,7.0,64,0.00,,CLR,0.01,VWS V14.00,2013-04-28 16:29:00,
2013-04-28 12:34:00,57.7,47.2,30.30,SE,140,3.0,4.0,68,0.00,,CLR,0.01,VWS V14.00,2013-04-28 16:34:00,
2013-04-28 12:39:00,57.2,46.8,30.29,ESE,123,3.0,6.0,68,0.00,,CLR,0.01,VWS V14.00,2013-04-28 16:39:00,
2013-04-28 12:44:00,57.0,45.8,30.30,ENE,70,2.0,7.0,66,0.00,,CLR,0.01,VWS V14.00,2013-04-28 16:44:00,
2013-04-28 12:49:00,58.5,49.5,30.30,SSE,161,3.0,3.0,72,0.00,,CLR,0.01,VWS V14.00,2013-04-28 16:49:00,
2013-04-28 12:54:00,59.5,46.1,30.30,SE,146,3.0,5.0,61,0.00,,CLR,0.01,VWS V14.00,2013-04-28 16:54:00,
2013-04-28 12:59:00,60.4,46.9,30.30,SSE,157,2.0,3.0,61,0.00,,CLR,0.01,VWS V14.00,2013-04-28 16:59:00,
2013-04-28 13:04:00,61.2,46.8,30.30,ESE,110,3.0,4.0,59,0.00,,CLR,0.01,VWS V14.00,2013-04-28 17:04:00,
2013-04-28 13:09:00,59.9,45.5,30.29,ESE,123,3.0,5.0,59,0.00,,CLR,0.01,VWS V14.00,2013-04-28 17:09:00,
2013-04-28 13:14:00,59.7,47.5,30.29,NE,47,2.0,3.0,64,0.00,,CLR,0.01,VWS V14.00,2013-04-28 17:14:00,
2013-04-28 13:19:00,60.0,46.5,30.29,ESE,123,3.0,4.0,61,0.00,,CLR,0.01,VWS V14.00,2013-04-28 17:19:00,
2013-04-28 13:24:00,60.0,47.4,30.29,SE,130,3.0,4.0,63,0.00,,CLR,0.01,VWS V14.00,2013-04-28 17:24:00,
2013-04-28 13:29:00,60.7,46.8,30.29,East,94,2.0,4.0,60,0.00,,CLR,0.01,VWS V14.00,2013-04-28 17:29:00,
2013-04-28 13:34:00,61.5,47.1,30.29,SSE,157,3.0,3.0,59,0.00,,CLR,0.01,VWS V14.00,2013-04-28 17:34:00,
2013-04-28 13:39:00,61.8,45.5,30.28,SSE,155,3.0,5.0,55,0.00,,CLR,0.01,VWS V14.00,2013-04-28 17:39:00,
2013-04-28 13:44:00,61.8,46.0,30.29,ESE,118,3.0,4.0,56,0.00,,CLR,0.01,VWS V14.00,2013-04-28 17:44:00,
2013-04-28 13:49:00,61.8,45.5,30.29,ESE,111,1.0,1.0,55,0.00,,CLR,0.01,VWS V14.00,2013-04-28 17:49:00,
2013-04-28 13:54:00,62.1,44.8,30.29,SE,134,2.0,3.0,53,0.00,,CLR,0.01,VWS V14.00,2013-04-28 17:54:00,
2013-04-28 13:59:00,61.7,46.8,30.29,ENE,59,2.0,5.0,58,0.00,,CLR,0.01,VWS V14.00,2013-04-28 17:59:00,
2013-04-28 14:04:00,61.9,46.0,30.29,ESE,117,4.0,4.0,56,0.00,,CLR,0.01,VWS V14.00,2013-04-28 18:04:00,
2013-04-28 14:09:00,62.0,45.7,30.29,SE,136,7.0,7.0,55,0.00,,CLR,0.01,VWS V14.00,2013-04-28 18:09:00,
2013-04-28 14:14:00,62.1,47.2,30.29,SE,145,6.0,7.0,58,0.00,,CLR,0.01,VWS V14.00,2013-04-28 18:14:00,
2013-04-28 14:19:00,62.2,47.3,30.28,SSE,157,2.0,2.0,58,0.00,,CLR,0.01,VWS V14.00,2013-04-28 18:19:00,
2013-04-28 14:24:00,62.5,46.6,30.28,ESE,114,2.0,4.0,56,0.00,,CLR,0.01,VWS V14.00,2013-04-28 18:24:00,
2013-04-28 14:29:00,62.0,46.6,30.28,East,101,6.0,6.0,57,0.00,,CLR,0.01,VWS V14.00,2013-04-28 18:29:00,
2013-04-28 14:34:00,60.7,46.3,30.28,East,100,3.0,4.0,59,0.00,,CLR,0.01,VWS V14.00,2013-04-28 18:34:00,
2013-04-28 14:39:00,61.4,46.5,30.28,East,84,6.0,6.0,58,0.00,,CLR,0.01,VWS V14.00,2013-04-28 18:39:00,
2013-04-28 14:44:00,62.1,46.7,30.28,SE,136,3.0,4.0,57,0.00,,CLR,0.01,VWS V14.00,2013-04-28 18:44:00,
2013-04-28 14:49:00,62.2,46.3,30.27,SE,146,1.0,5.0,56,0.00,,CLR,0.01,VWS V14.00,2013-04-28 18:49:00,
2013-04-28 14:54:00,63.4,46.0,30.27,SSE,152,2.0,4.0,53,0.00,,CLR,0.01,VWS V14.00,2013-04-28 18:54:00,
2013-04-28 14:59:00,64.1,45.1,30.27,SE,139,5.0,6.0,50,0.00,,CLR,0.01,VWS V14.00,2013-04-28 18:59:00,
2013-04-28 15:04:00,64.2,45.7,30.26,SSE,160,2.0,2.0,51,0.00,,CLR,0.01,VWS V14.00,2013-04-28 19:04:00,
2013-04-28 15:09:00,64.7,42.9,30.26,SSW,194,5.0,7.0,45,0.00,,CLR,0.01,VWS V14.00,2013-04-28 19:09:00,
2013-04-28 15:14:00,65.0,43.2,30.26,SSE,161,5.0,5.0,45,0.00,,CLR,0.01,VWS V14.00,2013-04-28 19:14:00,
2013-04-28 15:19:00,65.6,43.1,30.26,SSE,155,4.0,4.0,44,0.00,,CLR,0.01,VWS V14.00,2013-04-28 19:19:00,
2013-04-28 15:24:00,66.3,43.2,30.25,SSW,192,2.0,3.0,43,0.00,,CLR,0.01,VWS V14.00,2013-04-28 19:24:00,
2013-04-28 15:29:00,65.9,42.8,30.25,SSE,157,2.0,3.0,43,0.00,,CLR,0.01,VWS V14.00,2013-04-28 19:29:00,
2013-04-28 15:34:00,65.7,43.2,30.25,SSE,167,5.0,7.0,44,0.00,,CLR,0.01,VWS V14.00,2013-04-28 19:34:00,
2013-04-28 15:39:00,64.7,42.9,30.25,SW,223,6.0,6.0,45,0.00,,CLR,0.01,VWS V14.00,2013-04-28 19:39:00,
2013-04-28 15:44:00,64.5,43.8,30.25,SSE,164,2.0,7.0,47,0.00,,CLR,0.01,VWS V14.00,2013-04-28 19:44:00,
2013-04-28 15:49:00,63.9,42.2,30.25,SSE,159,3.0,4.0,45,0.00,,CLR,0.01,VWS V14.00,2013-04-28 19:49:00,
2013-04-28 15:54:00,63.9,42.7,30.25,SSE,153,4.0,4.0,46,0.00,,CLR,0.01,VWS V14.00,2013-04-28 19:54:00,
2013-04-28 15:58:00,63.9,43.3,30.25,SSW,203,5.0,5.0,47,0.00,,CLR,0.01,VWS V14.00,2013-04-28 19:58:00,
2013-04-28 16:03:00,63.9,41.6,30.25,SSE,148,2.0,3.0,44,0.00,,CLR,0.01,VWS V14.00,2013-04-28 20:03:00,
2013-04-28 16:08:00,64.0,41.1,30.25,SSE,157,3.0,5.0,43,0.00,,CLR,0.01,VWS V14.00,2013-04-28 20:08:00,
2013-04-28 16:13:00,63.9,40.4,30.25,SSW,209,5.0,5.0,42,0.00,,CLR,0.01,VWS V14.00,2013-04-28 20:13:00,
2013-04-28 16:18:00,64.1,42.9,30.25,ESE,109,3.0,4.0,46,0.00,,CLR,0.01,VWS V14.00,2013-04-28 20:18:00,
2013-04-28 16:23:00,64.3,40.7,30.25,West,259,1.0,3.0,42,0.00,,CLR,0.01,VWS V14.00,2013-04-28 20:23:00,
2013-04-28 16:28:00,63.7,41.4,30.25,SW,226,4.0,4.0,44,0.00,,CLR,0.01,VWS V14.00,2013-04-28 20:28:00,
2013-04-28 16:33:00,63.6,42.5,30.25,West,260,3.0,4.0,46,0.00,,CLR,0.01,VWS V14.00,2013-04-28 20:33:00,
2013-04-28 16:38:00,62.9,40.7,30.25,SSE,152,3.0,4.0,44,0.00,,CLR,0.01,VWS V14.00,2013-04-28 20:38:00,
2013-04-28 16:43:00,62.3,41.8,30.25,SE,142,4.0,5.0,47,0.00,,CLR,0.01,VWS V14.00,2013-04-28 20:43:00,
2013-04-28 16:48:00,61.9,41.5,30.25,SSE,164,3.0,3.0,47,0.00,,CLR,0.01,VWS V14.00,2013-04-28 20:48:00,
2013-04-28 16:53:00,61.1,40.2,30.25,SW,232,2.0,2.0,46,0.00,,CLR,0.01,VWS V14.00,2013-04-28 20:53:00,
2013-04-28 16:58:00,60.2,40.5,30.25,SE,136,3.0,4.0,48,0.00,,CLR,0.01,VWS V14.00,2013-04-28 20:58:00,
2013-04-28 17:03:00,59.8,40.6,30.25,South,172,3.0,3.0,49,0.00,,CLR,0.01,VWS V14.00,2013-04-28 21:03:00,
2013-04-28 17:08:00,59.5,41.4,30.25,SE,140,4.0,5.0,51,0.00,,CLR,0.01,VWS V14.00,2013-04-28 21:08:00,
2013-04-28 17:13:00,59.7,41.6,30.25,SSE,163,3.0,4.0,51,0.00,,CLR,0.01,VWS V14.00,2013-04-28 21:13:00,
2013-04-28 17:18:00,59.8,41.1,30.25,WSW,247,5.0,5.0,50,0.00,,CLR,0.01,VWS V14.00,2013-04-28 21:18:00,
2013-04-28 17:23:00,59.7,41.6,30.25,SSE,159,4.0,4.0,51,0.00,,CLR,0.01,VWS V14.00,2013-04-28 21:23:00,
2013-04-28 17:28:00,59.9,42.2,30.25,South,188,2.0,2.0,52,0.00,,CLR,0.01,VWS V14.00,2013-04-28 21:28:00,
2013-04-28 17:33:00,60.0,42.8,30.25,South,169,5.0,5.0,53,0.00,,CLR,0.01,VWS V14.00,2013-04-28 21:33:00,
2013-04-28 17:38:00,59.4,41.8,30.25,South,172,4.0,5.0,52,0.00,,CLR,0.01,VWS V14.00,2013-04-28 21:38:00,
2013-04-28 17:43:00,59.0,42.9,30.25,SSE,152,6.0,7.0,55,0.00,,CLR,0.01,VWS V14.00,2013-04-28 21:43:00,
2013-04-28 17:48:00,58.6,42.0,30.25,SSE,155,4.0,6.0,54,0.00,,CLR,0.01,VWS V14.00,2013-04-28 21:48:00,
2013-04-28 17:53:00,57.8,41.3,30.25,SSE,155,3.0,8.0,54,0.00,,CLR,0.01,VWS V14.00,2013-04-28 21:53:00,
2013-04-28 17:58:00,57.6,42.0,30.25,SSE,165,4.0,6.0,56,0.00,,CLR,0.01,VWS V14.00,2013-04-28 21:58:00,
2013-04-28 18:03:00,57.2,40.7,30.24,SSE,164,3.0,6.0,54,0.00,,CLR,0.01,VWS V14.00,2013-04-28 22:03:00,
2013-04-28 18:08:00,56.8,41.3,30.24,SE,144,3.0,5.0,56,0.00,,CLR,0.01,VWS V14.00,2013-04-28 22:08:00,
2013-04-28 18:13:00,56.3,39.9,30.24,SSE,159,4.0,6.0,54,0.00,,CLR,0.01,VWS V14.00,2013-04-28 22:13:00,
2013-04-28 18:18:00,56.2,40.7,30.23,SSE,152,2.0,4.0,56,0.00,,CLR,0.01,VWS V14.00,2013-04-28 22:18:00,
2013-04-28 18:23:00,56.5,41.0,30.23,SE,142,1.0,4.0,56,0.00,,CLR,0.01,VWS V14.00,2013-04-28 22:23:00,
2013-04-28 18:28:00,57.0,37.5,30.23,SW,225,2.0,4.0,48,0.00,,CLR,0.01,VWS V14.00,2013-04-28 22:28:00,
2013-04-28 18:33:00,57.6,37.5,30.23,SE,137,4.0,5.0,47,0.00,,CLR,0.01,VWS V14.00,2013-04-28 22:33:00,
2013-04-28 18:38:00,57.6,35.9,30.23,South,183,6.0,6.0,44,0.00,,CLR,0.01,VWS V14.00,2013-04-28 22:38:00,
2013-04-28 18:43:00,57.5,35.8,30.23,SSW,196,3.0,7.0,44,0.00,,CLR,0.01,VWS V14.00,2013-04-28 22:43:00,
2013-04-28 18:48:00,57.1,35.4,30.23,SSE,152,5.0,7.0,44,0.00,,CLR,0.01,VWS V14.00,2013-04-28 22:48:00,
2013-04-28 18:53:00,56.8,35.7,30.23,SW,217,3.0,5.0,45,0.00,,CLR,0.01,VWS V14.00,2013-04-28 22:53:00,
2013-04-28 18:58:00,56.5,34.3,30.23,SSE,157,2.0,4.0,43,0.00,,CLR,0.01,VWS V14.00,2013-04-28 22:58:00,
2013-04-28 19:03:00,56.2,35.2,30.23,South,173,3.0,3.0,45,0.00,,CLR,0.01,VWS V14.00,2013-04-28 23:03:00,
2013-04-28 19:08:00,55.8,34.2,30.23,South,184,1.0,3.0,44,0.00,,CLR,0.01,VWS V14.00,2013-04-28 23:08:00,
2013-04-28 19:13:00,55.5,33.4,30.23,South,172,1.0,3.0,43,0.00,,CLR,0.01,VWS V14.00,2013-04-28 23:13:00,
2013-04-28 19:18:00,55.1,33.6,30.22,South,182,3.0,3.0,44,0.00,,CLR,0.01,VWS V14.00,2013-04-28 23:18:00,
2013-04-28 19:23:00,54.5,34.7,30.22,SSE,159,0.0,3.0,47,0.00,,CLR,0.01,VWS V14.00,2013-04-28 23:23:00,
2013-04-28 19:28:00,54.1,34.3,30.22,SW,229,1.0,4.0,47,0.00,,CLR,0.01,VWS V14.00,2013-04-28 23:28:00,
2013-04-28 19:33:00,53.8,35.1,30.23,SW,232,0.0,3.0,49,0.00,,CLR,0.01,VWS V14.00,2013-04-28 23:33:00,
2013-04-28 19:38:00,53.3,36.6,30.22,SSW,193,0.0,3.0,53,0.00,,CLR,0.01,VWS V14.00,2013-04-28 23:38:00,
2013-04-28 19:43:00,53.0,38.2,30.23,SE,136,0.0,2.0,57,0.00,,CLR,0.01,VWS V14.00,2013-04-28 23:43:00,
2013-04-28 19:48:00,52.6,38.7,30.23,SE,145,0.0,2.0,59,0.00,,CLR,0.01,VWS V14.00,2013-04-28 23:48:00,
2013-04-28 19:53:00,52.3,37.5,30.23,SE,146,0.0,4.0,57,0.00,,CLR,0.01,VWS V14.00,2013-04-28 23:53:00,
2013-04-28 19:58:00,52.1,38.7,30.22,SSE,152,1.0,2.0,60,0.00,,CLR,0.01,VWS V14.00,2013-04-28 23:58:00,
2013-04-28 20:03:00,51.9,38.0,30.22,SSE,155,0.0,4.0,59,0.00,,CLR,0.01,VWS V14.00,2013-04-29 00:03:00,
2013-04-28 20:08:00,51.7,38.7,30.22,SE,142,1.0,2.0,61,0.00,,CLR,0.01,VWS V14.00,2013-04-29 00:08:00,
2013-04-28 20:13:00,51.5,39.3,30.22,SE,134,0.0,1.0,63,0.00,,CLR,0.01,VWS V14.00,2013-04-29 00:13:00,
2013-04-28 20:18:00,51.2,39.8,30.22,SE,139,0.0,1.0,65,0.00,,CLR,0.01,VWS V14.00,2013-04-29 00:18:00,
2013-04-28 20:23:00,51.0,40.8,30.23,SE,140,0.0,1.0,68,0.00,,CLR,0.01,VWS V14.00,2013-04-29 00:23:00,
2013-04-28 20:28:00,50.8,41.0,30.23,SE,140,0.0,0.0,69,0.00,,CLR,0.01,VWS V14.00,2013-04-29 00:28:00,
2013-04-28 20:33:00,50.7,42.0,30.23,South,169,1.0,2.0,72,0.00,,CLR,0.01,VWS V14.00,2013-04-29 00:33:00,
2013-04-28 20:38:00,50.7,42.7,30.23,SW,235,0.0,2.0,74,0.00,,CLR,0.01,VWS V14.00,2013-04-29 00:38:00,
2013-04-28 20:43:00,50.6,43.0,30.23,SSW,207,2.0,2.0,75,0.00,,CLR,0.01,VWS V14.00,2013-04-29 00:43:00,
2013-04-28 20:48:00,50.5,43.6,30.24,SSW,207,1.0,3.0,77,0.00,,CLR,0.01,VWS V14.00,2013-04-29 00:48:00,
2013-04-28 20:53:00,50.4,43.8,30.24,South,187,1.0,2.0,78,0.00,,CLR,0.01,VWS V14.00,2013-04-29 00:53:00,
2013-04-28 20:58:00,50.1,43.8,30.24,South,172,0.0,1.0,79,0.00,,CLR,0.01,VWS V14.00,2013-04-29 00:58:00,
2013-04-28 21:03:00,49.8,43.6,30.24,South,173,0.0,0.0,79,0.00,,CLR,0.01,VWS V14.00,2013-04-29 01:03:00,
2013-04-28 21:08:00,49.6,43.7,30.24,South,172,0.0,0.0,80,0.00,,CLR,0.01,VWS V14.00,2013-04-29 01:08:00,
2013-04-28 21:13:00,49.3,43.7,30.24,South,172,0.0,1.0,81,0.00,,CLR,0.01,VWS V14.00,2013-04-29 01:13:00,
2013-04-28 21:18:00,49.1,43.5,30.24,South,169,0.0,1.0,81,0.00,,CLR,0.01,VWS V14.00,2013-04-29 01:18:00,
2013-04-28 21:23:00,49.1,43.5,30.24,South,169,0.0,0.0,81,0.00,,CLR,0.01,VWS V14.00,2013-04-29 01:23:00,
2013-04-28 21:28:00,49.1,43.5,30.24,South,169,0.0,0.0,81,0.00,,CLR,0.01,VWS V14.00,2013-04-29 01:28:00,
2013-04-28 21:33:00,48.9,43.3,30.24,South,169,0.0,0.0,81,0.00,,CLR,0.01,VWS V14.00,2013-04-29 01:33:00,
2013-04-28 21:38:00,48.7,43.5,30.24,South,169,0.0,0.0,82,0.00,,CLR,0.01,VWS V14.00,2013-04-29 01:38:00,
2013-04-28 21:43:00,48.6,43.7,30.24,South,169,0.0,0.0,83,0.00,,CLR,0.01,VWS V14.00,2013-04-29 01:43:00,
2013-04-28 21:48:00,48.5,43.9,30.25,South,169,0.0,0.0,84,0.00,,CLR,0.01,VWS V14.00,2013-04-29 01:48:00,
2013-04-28 21:53:00,48.3,43.7,30.25,South,169,0.0,0.0,84,0.00,,CLR,0.01,VWS V14.00,2013-04-29 01:53:00,
2013-04-28 21:58:00,48.3,44.0,30.25,South,169,0.0,0.0,85,0.00,,CLR,0.01,VWS V14.00,2013-04-29 01:58:00,
2013-04-28 22:03:00,48.4,44.4,30.25,SE,144,0.0,0.0,86,0.00,,CLR,0.01,VWS V14.00,2013-04-29 02:03:00,
2013-04-28 22:08:00,48.6,44.6,30.25,SE,144,0.0,0.0,86,0.00,,CLR,0.01,VWS V14.00,2013-04-29 02:08:00,
2013-04-28 22:13:00,48.7,44.7,30.25,SE,142,0.0,1.0,86,0.00,,CLR,0.01,VWS V14.00,2013-04-29 02:13:00,
2013-04-28 22:18:00,48.8,45.1,30.25,SE,143,0.0,0.0,87,0.00,,CLR,0.01,VWS V14.00,2013-04-29 02:18:00,
2013-04-28 22:23:00,48.7,44.7,30.25,SE,142,0.0,0.0,86,0.00,,CLR,0.01,VWS V14.00,2013-04-29 02:23:00,
2013-04-28 22:28:00,48.6,44.9,30.25,SE,142,0.0,0.0,87,0.00,,CLR,0.01,VWS V14.00,2013-04-29 02:28:00,
2013-04-28 22:33:00,48.5,45.1,30.25,SE,143,0.0,0.0,88,0.00,,CLR,0.01,VWS V14.00,2013-04-29 02:33:00,
2013-04-28 22:38:00,48.6,45.8,30.25,SE,138,0.0,1.0,90,0.00,,CLR,0.01,VWS V14.00,2013-04-29 02:38:00,
2013-04-28 22:42:00,48.7,45.9,30.25,SE,138,0.0,0.0,90,0.00,,CLR,0.01,VWS V14.00,2013-04-29 02:42:00,
2013-04-28 22:47:00,48.8,46.3,30.25,SE,138,0.0,0.0,91,0.00,,CLR,0.01,VWS V14.00,2013-04-29 02:47:00,
2013-04-28 22:52:00,48.7,46.2,30.24,SE,138,0.0,0.0,91,0.00,,CLR,0.01,VWS V14.00,2013-04-29 02:52:00,
2013-04-28 22:57:00,48.8,46.6,30.25,SE,138,0.0,0.0,92,0.00,,CLR,0.01,VWS V14.00,2013-04-29 02:57:00,
2013-04-28 23:02:00,48.8,46.6,30.25,SE,138,0.0,0.0,92,0.00,,CLR,0.01,VWS V14.00,2013-04-29 03:02:00,
2013-04-28 23:07:00,48.6,46.4,30.25,SE,138,0.0,0.0,92,0.00,,CLR,0.01,VWS V14.00,2013-04-29 03:07:00,
2013-04-28 23:12:00,48.4,46.2,30.25,SE,138,0.0,0.0,92,0.00,,CLR,0.01,VWS V14.00,2013-04-29 03:12:00,
2013-04-28 23:17:00,48.2,46.0,30.25,SE,139,0.0,0.0,92,0.00,,CLR,0.01,VWS V14.00,2013-04-29 03:17:00,
2013-04-28 23:22:00,48.1,46.2,30.25,SE,139,0.0,0.0,93,0.00,,CLR,0.01,VWS V14.00,2013-04-29 03:22:00,
2013-04-28 23:27:00,48.0,46.1,30.25,SE,139,0.0,0.0,93,0.00,,CLR,0.01,VWS V14.00,2013-04-29 03:27:00,
2013-04-28 23:32:00,48.0,46.1,30.25,SE,139,0.0,0.0,93,0.00,,CLR,0.01,VWS V14.00,2013-04-29 03:32:00,
2013-04-28 23:37:00,48.1,46.2,30.25,SE,138,0.0,0.0,93,0.00,,CLR,0.01,VWS V14.00,2013-04-29 03:37:00,
2013-04-28 23:42:00,48.1,46.2,30.25,SE,139,0.0,0.0,93,0.00,,CLR,0.01,VWS V14.00,2013-04-29 03:42:00,
2013-04-28 23:47:00,48.1,46.2,30.25,SE,138,0.0,0.0,93,0.00,,CLR,0.01,VWS V14.00,2013-04-29 03:47:00,
2013-04-28 23:52:00,48.1,46.2,30.25,SE,139,0.0,0.0,93,0.00,,CLR,0.01,VWS V14.00,2013-04-29 03:52:00,
2013-04-28 23:57:00,48.1,46.2,30.25,SE,138,0.0,0.0,93,0.00,,CLR,0.01,VWS V14.00,2013-04-29 03:57:00,